sensor_id;sensor_type;location;lat;lon;timestamp;P1;durP1;ratioP1;P2;durP2;ratioP2
67986;SDS011;54767;53.800;15.956;2023-04-15T00:00:57;12.70;;;9.00;;
67986;SDS011;54767;53.800;15.956;2023-04-15T00:03:27;13.30;;;8.90;;
67986;SDS011;54767;53.800;15.956;2023-04-15T00:05:57;15.60;;;9.30;;
67986;SDS011;54767;53.800;15.956;2023-04-15T00:08:26;14.60;;;10.40;;
67986;SDS011;54767;53.800;15.956;2023-04-15T00:10:55;13.90;;;9.00;;
67986;SDS011;54767;53.800;15.956;2023-04-15T00:13:26;14.50;;;9.20;;
67986;SDS011;54767;53.800;15.956;2023-04-15T00:15:55;14.70;;;9.30;;
67986;SDS011;54767;53.800;15.956;2023-04-15T00:18:23;12.50;;;9.00;;
67986;SDS011;54767;53.800;15.956;2023-04-15T00:20:52;13.50;;;9.20;;
67986;SDS011;54767;53.800;15.956;2023-04-15T00:23:21;13.50;;;9.20;;
67986;SDS011;54767;53.800;15.956;2023-04-15T00:25:49;13.90;;;9.10;;
67986;SDS011;54767;53.800;15.956;2023-04-15T00:28:18;14.60;;;9.50;;
67986;SDS011;54767;53.800;15.956;2023-04-15T00:30:46;12.10;;;9.00;;
67986;SDS011;54767;53.800;15.956;2023-04-15T00:33:15;11.70;;;8.00;;
67986;SDS011;54767;53.800;15.956;2023-04-15T00:35:43;14.10;;;8.70;;
67986;SDS011;54767;53.800;15.956;2023-04-15T00:38:11;13.90;;;9.00;;
67986;SDS011;54767;53.800;15.956;2023-04-15T00:40:40;15.20;;;9.60;;
67986;SDS011;54767;53.800;15.956;2023-04-15T00:43:08;14.40;;;9.50;;
67986;SDS011;54767;53.800;15.956;2023-04-15T00:45:37;12.30;;;8.60;;
67986;SDS011;54767;53.800;15.956;2023-04-15T00:48:05;13.00;;;9.40;;
67986;SDS011;54767;53.800;15.956;2023-04-15T00:50:34;13.90;;;9.30;;
67986;SDS011;54767;53.800;15.956;2023-04-15T00:53:02;13.30;;;9.20;;
67986;SDS011;54767;53.800;15.956;2023-04-15T00:55:30;12.00;;;8.70;;
67986;SDS011;54767;53.800;15.956;2023-04-15T00:57:59;12.00;;;8.40;;
67986;SDS011;54767;53.800;15.956;2023-04-15T01:00:27;11.70;;;8.90;;
67986;SDS011;54767;53.800;15.956;2023-04-15T01:05:25;12.80;;;8.90;;
67986;SDS011;54767;53.800;15.956;2023-04-15T01:07:54;12.40;;;8.70;;
67986;SDS011;54767;53.800;15.956;2023-04-15T01:10:23;13.00;;;8.80;;
67986;SDS011;54767;53.800;15.956;2023-04-15T01:12:51;13.20;;;8.70;;
67986;SDS011;54767;53.800;15.956;2023-04-15T01:15:20;12.80;;;9.00;;
67986;SDS011;54767;53.800;15.956;2023-04-15T01:17:48;12.80;;;8.50;;
67986;SDS011;54767;53.800;15.956;2023-04-15T01:20:17;13.00;;;8.50;;
67986;SDS011;54767;53.800;15.956;2023-04-15T01:22:46;12.50;;;8.00;;
67986;SDS011;54767;53.800;15.956;2023-04-15T01:25:19;13.20;;;8.20;;
67986;SDS011;54767;53.800;15.956;2023-04-15T01:28:00;13.00;;;8.90;;
67986;SDS011;54767;53.800;15.956;2023-04-15T01:30:32;10.60;;;7.70;;
67986;SDS011;54767;53.800;15.956;2023-04-15T01:33:01;10.80;;;8.20;;
67986;SDS011;54767;53.800;15.956;2023-04-15T01:35:30;14.70;;;9.00;;
67986;SDS011;54767;53.800;15.956;2023-04-15T01:38:02;12.80;;;8.90;;
67986;SDS011;54767;53.800;15.956;2023-04-15T01:40:33;12.70;;;8.50;;
67986;SDS011;54767;53.800;15.956;2023-04-15T01:43:02;11.70;;;8.20;;
67986;SDS011;54767;53.800;15.956;2023-04-15T01:45:31;12.80;;;8.80;;
67986;SDS011;54767;53.800;15.956;2023-04-15T01:47:59;13.00;;;8.90;;
67986;SDS011;54767;53.800;15.956;2023-04-15T01:50:28;12.90;;;9.00;;
67986;SDS011;54767;53.800;15.956;2023-04-15T01:52:56;12.10;;;8.40;;
67986;SDS011;54767;53.800;15.956;2023-04-15T01:55:25;15.10;;;9.70;;
67986;SDS011;54767;53.800;15.956;2023-04-15T01:57:53;13.20;;;9.20;;
67986;SDS011;54767;53.800;15.956;2023-04-15T02:00:22;13.30;;;9.40;;
67986;SDS011;54767;53.800;15.956;2023-04-15T02:02:51;12.90;;;9.10;;
67986;SDS011;54767;53.800;15.956;2023-04-15T02:05:19;13.30;;;9.50;;
67986;SDS011;54767;53.800;15.956;2023-04-15T02:07:47;12.20;;;8.80;;
67986;SDS011;54767;53.800;15.956;2023-04-15T02:10:16;14.00;;;9.90;;
67986;SDS011;54767;53.800;15.956;2023-04-15T02:12:44;12.20;;;9.10;;
67986;SDS011;54767;53.800;15.956;2023-04-15T02:15:13;12.70;;;9.20;;
67986;SDS011;54767;53.800;15.956;2023-04-15T02:17:42;12.60;;;8.80;;
67986;SDS011;54767;53.800;15.956;2023-04-15T02:20:13;14.00;;;9.10;;
67986;SDS011;54767;53.800;15.956;2023-04-15T02:22:42;15.30;;;10.00;;
67986;SDS011;54767;53.800;15.956;2023-04-15T02:25:10;13.40;;;9.00;;
67986;SDS011;54767;53.800;15.956;2023-04-15T02:27:39;14.20;;;9.00;;
67986;SDS011;54767;53.800;15.956;2023-04-15T02:30:07;13.80;;;9.00;;
67986;SDS011;54767;53.800;15.956;2023-04-15T02:32:36;13.20;;;9.60;;
67986;SDS011;54767;53.800;15.956;2023-04-15T02:35:05;11.10;;;8.20;;
67986;SDS011;54767;53.800;15.956;2023-04-15T02:37:36;13.80;;;8.70;;
67986;SDS011;54767;53.800;15.956;2023-04-15T02:40:11;14.10;;;8.90;;
67986;SDS011;54767;53.800;15.956;2023-04-15T02:42:40;16.00;;;9.30;;
67986;SDS011;54767;53.800;15.956;2023-04-15T02:45:11;13.70;;;9.70;;
67986;SDS011;54767;53.800;15.956;2023-04-15T02:47:40;16.40;;;9.20;;
67986;SDS011;54767;53.800;15.956;2023-04-15T02:50:10;13.40;;;9.20;;
67986;SDS011;54767;53.800;15.956;2023-04-15T02:52:40;14.90;;;9.50;;
67986;SDS011;54767;53.800;15.956;2023-04-15T02:55:09;14.00;;;9.30;;
67986;SDS011;54767;53.800;15.956;2023-04-15T02:57:37;14.40;;;9.60;;
67986;SDS011;54767;53.800;15.956;2023-04-15T03:00:07;14.30;;;9.20;;
67986;SDS011;54767;53.800;15.956;2023-04-15T03:02:38;14.70;;;9.50;;
67986;SDS011;54767;53.800;15.956;2023-04-15T03:05:12;12.60;;;9.20;;
67986;SDS011;54767;53.800;15.956;2023-04-15T03:07:41;13.50;;;9.40;;
67986;SDS011;54767;53.800;15.956;2023-04-15T03:10:10;15.40;;;10.20;;
67986;SDS011;54767;53.800;15.956;2023-04-15T03:12:38;13.20;;;9.50;;
67986;SDS011;54767;53.800;15.956;2023-04-15T03:15:07;16.00;;;9.60;;
67986;SDS011;54767;53.800;15.956;2023-04-15T03:17:36;13.90;;;9.60;;
67986;SDS011;54767;53.800;15.956;2023-04-15T03:20:06;13.00;;;9.40;;
67986;SDS011;54767;53.800;15.956;2023-04-15T03:22:35;14.20;;;9.20;;
67986;SDS011;54767;53.800;15.956;2023-04-15T03:25:03;14.80;;;9.70;;
67986;SDS011;54767;53.800;15.956;2023-04-15T03:27:32;13.80;;;10.00;;
67986;SDS011;54767;53.800;15.956;2023-04-15T03:30:00;14.10;;;9.90;;
67986;SDS011;54767;53.800;15.956;2023-04-15T03:32:28;12.30;;;9.10;;
67986;SDS011;54767;53.800;15.956;2023-04-15T03:34:57;14.60;;;10.00;;
67986;SDS011;54767;53.800;15.956;2023-04-15T03:37:25;15.50;;;10.10;;
67986;SDS011;54767;53.800;15.956;2023-04-15T03:39:53;13.60;;;10.00;;
67986;SDS011;54767;53.800;15.956;2023-04-15T03:42:21;14.70;;;8.90;;
67986;SDS011;54767;53.800;15.956;2023-04-15T03:44:50;15.90;;;10.90;;
67986;SDS011;54767;53.800;15.956;2023-04-15T03:47:18;13.80;;;9.10;;
67986;SDS011;54767;53.800;15.956;2023-04-15T03:49:46;14.70;;;9.40;;
67986;SDS011;54767;53.800;15.956;2023-04-15T03:52:14;14.60;;;9.70;;
67986;SDS011;54767;53.800;15.956;2023-04-15T03:54:43;14.40;;;8.90;;
67986;SDS011;54767;53.800;15.956;2023-04-15T03:57:11;16.10;;;10.00;;
67986;SDS011;54767;53.800;15.956;2023-04-15T03:59:39;15.00;;;10.70;;
67986;SDS011;54767;53.800;15.956;2023-04-15T04:02:08;17.70;;;10.40;;
67986;SDS011;54767;53.800;15.956;2023-04-15T04:04:36;14.40;;;9.90;;
67986;SDS011;54767;53.800;15.956;2023-04-15T04:07:04;15.80;;;10.30;;
67986;SDS011;54767;53.800;15.956;2023-04-15T04:09:33;14.70;;;9.40;;
67986;SDS011;54767;53.800;15.956;2023-04-15T04:12:01;14.10;;;9.80;;
67986;SDS011;54767;53.800;15.956;2023-04-15T04:16:59;14.30;;;9.90;;
67986;SDS011;54767;53.800;15.956;2023-04-15T04:19:28;15.40;;;10.40;;
67986;SDS011;54767;53.800;15.956;2023-04-15T04:21:57;15.80;;;9.40;;
67986;SDS011;54767;53.800;15.956;2023-04-15T04:24:25;15.00;;;10.80;;
67986;SDS011;54767;53.800;15.956;2023-04-15T04:26:54;14.40;;;10.00;;
67986;SDS011;54767;53.800;15.956;2023-04-15T04:29:24;16.70;;;10.20;;
67986;SDS011;54767;53.800;15.956;2023-04-15T04:31:52;19.00;;;10.60;;
67986;SDS011;54767;53.800;15.956;2023-04-15T04:34:20;14.40;;;9.90;;
67986;SDS011;54767;53.800;15.956;2023-04-15T04:36:49;17.20;;;10.80;;
67986;SDS011;54767;53.800;15.956;2023-04-15T04:39:17;14.40;;;10.40;;
67986;SDS011;54767;53.800;15.956;2023-04-15T04:41:45;14.30;;;10.50;;
67986;SDS011;54767;53.800;15.956;2023-04-15T04:44:13;13.30;;;10.00;;
67986;SDS011;54767;53.800;15.956;2023-04-15T04:46:42;14.30;;;10.30;;
67986;SDS011;54767;53.800;15.956;2023-04-15T04:49:10;16.20;;;10.60;;
67986;SDS011;54767;53.800;15.956;2023-04-15T04:51:38;14.20;;;11.00;;
67986;SDS011;54767;53.800;15.956;2023-04-15T04:54:07;15.10;;;10.90;;
67986;SDS011;54767;53.800;15.956;2023-04-15T04:56:36;15.10;;;10.70;;
67986;SDS011;54767;53.800;15.956;2023-04-15T04:59:06;14.00;;;9.80;;
67986;SDS011;54767;53.800;15.956;2023-04-15T05:01:35;18.30;;;11.20;;
67986;SDS011;54767;53.800;15.956;2023-04-15T05:04:03;13.20;;;10.00;;
67986;SDS011;54767;53.800;15.956;2023-04-15T05:06:32;15.00;;;10.80;;
67986;SDS011;54767;53.800;15.956;2023-04-15T05:09:02;17.40;;;10.90;;
67986;SDS011;54767;53.800;15.956;2023-04-15T05:11:31;16.10;;;10.90;;
67986;SDS011;54767;53.800;15.956;2023-04-15T05:13:59;15.50;;;11.10;;
67986;SDS011;54767;53.800;15.956;2023-04-15T05:18:57;15.50;;;10.00;;
67986;SDS011;54767;53.800;15.956;2023-04-15T05:21:25;14.80;;;10.50;;
67986;SDS011;54767;53.800;15.956;2023-04-15T05:23:54;17.90;;;11.20;;
67986;SDS011;54767;53.800;15.956;2023-04-15T05:26:22;16.90;;;10.50;;
67986;SDS011;54767;53.800;15.956;2023-04-15T05:28:51;13.90;;;10.20;;
67986;SDS011;54767;53.800;15.956;2023-04-15T05:31:19;15.70;;;10.80;;
67986;SDS011;54767;53.800;15.956;2023-04-15T05:33:48;16.00;;;11.10;;
67986;SDS011;54767;53.800;15.956;2023-04-15T05:36:16;14.50;;;10.10;;
67986;SDS011;54767;53.800;15.956;2023-04-15T05:38:45;15.60;;;10.70;;
67986;SDS011;54767;53.800;15.956;2023-04-15T05:41:13;14.10;;;9.40;;
67986;SDS011;54767;53.800;15.956;2023-04-15T05:43:46;15.60;;;10.10;;
67986;SDS011;54767;53.800;15.956;2023-04-15T05:46:14;14.10;;;9.90;;
67986;SDS011;54767;53.800;15.956;2023-04-15T05:48:43;15.50;;;10.30;;
67986;SDS011;54767;53.800;15.956;2023-04-15T05:51:11;15.00;;;10.00;;
67986;SDS011;54767;53.800;15.956;2023-04-15T05:53:40;14.80;;;10.20;;
67986;SDS011;54767;53.800;15.956;2023-04-15T05:56:08;14.90;;;10.50;;
67986;SDS011;54767;53.800;15.956;2023-04-15T05:58:36;19.10;;;12.20;;
67986;SDS011;54767;53.800;15.956;2023-04-15T06:01:08;18.40;;;12.00;;
67986;SDS011;54767;53.800;15.956;2023-04-15T06:03:37;15.70;;;10.50;;
67986;SDS011;54767;53.800;15.956;2023-04-15T06:06:06;14.00;;;10.10;;
67986;SDS011;54767;53.800;15.956;2023-04-15T06:08:35;14.30;;;10.00;;
67986;SDS011;54767;53.800;15.956;2023-04-15T06:11:05;14.60;;;10.10;;
67986;SDS011;54767;53.800;15.956;2023-04-15T06:13:34;17.50;;;12.10;;
67986;SDS011;54767;53.800;15.956;2023-04-15T06:16:02;17.30;;;12.20;;
67986;SDS011;54767;53.800;15.956;2023-04-15T06:18:31;14.80;;;10.30;;
67986;SDS011;54767;53.800;15.956;2023-04-15T06:20:59;15.20;;;10.10;;
67986;SDS011;54767;53.800;15.956;2023-04-15T06:23:28;16.20;;;11.00;;
67986;SDS011;54767;53.800;15.956;2023-04-15T06:25:56;17.60;;;10.90;;
67986;SDS011;54767;53.800;15.956;2023-04-15T06:28:24;15.20;;;10.80;;
67986;SDS011;54767;53.800;15.956;2023-04-15T06:30:53;15.40;;;9.90;;
67986;SDS011;54767;53.800;15.956;2023-04-15T06:33:22;13.20;;;10.00;;
67986;SDS011;54767;53.800;15.956;2023-04-15T06:35:52;16.90;;;11.10;;
67986;SDS011;54767;53.800;15.956;2023-04-15T06:38:20;14.50;;;9.90;;
67986;SDS011;54767;53.800;15.956;2023-04-15T06:40:48;15.90;;;10.60;;
67986;SDS011;54767;53.800;15.956;2023-04-15T06:43:17;15.40;;;9.80;;
67986;SDS011;54767;53.800;15.956;2023-04-15T06:45:45;15.00;;;10.20;;
67986;SDS011;54767;53.800;15.956;2023-04-15T06:48:14;16.50;;;11.40;;
67986;SDS011;54767;53.800;15.956;2023-04-15T06:50:42;15.60;;;11.20;;
67986;SDS011;54767;53.800;15.956;2023-04-15T06:53:13;17.30;;;11.20;;
67986;SDS011;54767;53.800;15.956;2023-04-15T06:55:41;15.20;;;10.50;;
67986;SDS011;54767;53.800;15.956;2023-04-15T06:58:09;16.50;;;11.60;;
67986;SDS011;54767;53.800;15.956;2023-04-15T07:00:38;14.50;;;10.10;;
67986;SDS011;54767;53.800;15.956;2023-04-15T07:03:06;16.00;;;10.80;;
67986;SDS011;54767;53.800;15.956;2023-04-15T07:05:38;16.80;;;11.00;;
67986;SDS011;54767;53.800;15.956;2023-04-15T07:08:06;15.90;;;10.70;;
67986;SDS011;54767;53.800;15.956;2023-04-15T07:10:34;15.70;;;11.00;;
67986;SDS011;54767;53.800;15.956;2023-04-15T07:13:04;15.70;;;10.10;;
67986;SDS011;54767;53.800;15.956;2023-04-15T07:15:34;14.60;;;10.40;;
67986;SDS011;54767;53.800;15.956;2023-04-15T07:18:02;17.00;;;11.80;;
67986;SDS011;54767;53.800;15.956;2023-04-15T07:20:31;15.70;;;11.00;;
67986;SDS011;54767;53.800;15.956;2023-04-15T07:22:59;16.00;;;11.40;;
67986;SDS011;54767;53.800;15.956;2023-04-15T07:25:27;17.30;;;11.60;;
67986;SDS011;54767;53.800;15.956;2023-04-15T07:27:56;17.60;;;11.20;;
67986;SDS011;54767;53.800;15.956;2023-04-15T07:30:24;17.30;;;11.10;;
67986;SDS011;54767;53.800;15.956;2023-04-15T07:32:57;16.10;;;11.10;;
67986;SDS011;54767;53.800;15.956;2023-04-15T07:35:26;16.30;;;11.90;;
67986;SDS011;54767;53.800;15.956;2023-04-15T07:37:55;16.20;;;11.60;;
67986;SDS011;54767;53.800;15.956;2023-04-15T07:40:26;17.20;;;11.50;;
67986;SDS011;54767;53.800;15.956;2023-04-15T07:42:58;16.80;;;11.40;;
67986;SDS011;54767;53.800;15.956;2023-04-15T07:45:27;14.70;;;11.10;;
67986;SDS011;54767;53.800;15.956;2023-04-15T07:47:55;14.60;;;10.10;;
67986;SDS011;54767;53.800;15.956;2023-04-15T07:50:24;15.80;;;11.10;;
67986;SDS011;54767;53.800;15.956;2023-04-15T07:53:00;17.20;;;10.70;;
67986;SDS011;54767;53.800;15.956;2023-04-15T07:55:30;17.30;;;11.10;;
67986;SDS011;54767;53.800;15.956;2023-04-15T07:58:02;18.70;;;10.60;;
67986;SDS011;54767;53.800;15.956;2023-04-15T08:00:30;18.60;;;10.70;;
67986;SDS011;54767;53.800;15.956;2023-04-15T08:02:59;16.60;;;10.20;;
67986;SDS011;54767;53.800;15.956;2023-04-15T08:05:27;16.50;;;11.30;;
67986;SDS011;54767;53.800;15.956;2023-04-15T08:07:56;16.50;;;11.10;;
67986;SDS011;54767;53.800;15.956;2023-04-15T08:10:25;14.20;;;10.20;;
67986;SDS011;54767;53.800;15.956;2023-04-15T08:12:54;13.90;;;9.30;;
67986;SDS011;54767;53.800;15.956;2023-04-15T08:15:23;14.00;;;10.00;;
67986;SDS011;54767;53.800;15.956;2023-04-15T08:17:52;14.40;;;11.00;;
67986;SDS011;54767;53.800;15.956;2023-04-15T08:20:20;16.40;;;10.60;;
67986;SDS011;54767;53.800;15.956;2023-04-15T08:22:49;15.10;;;10.00;;
67986;SDS011;54767;53.800;15.956;2023-04-15T08:25:19;14.50;;;10.10;;
67986;SDS011;54767;53.800;15.956;2023-04-15T08:27:47;14.80;;;10.00;;
67986;SDS011;54767;53.800;15.956;2023-04-15T08:30:16;15.90;;;9.70;;
67986;SDS011;54767;53.800;15.956;2023-04-15T08:32:45;15.20;;;10.50;;
67986;SDS011;54767;53.800;15.956;2023-04-15T08:35:14;15.70;;;10.70;;
67986;SDS011;54767;53.800;15.956;2023-04-15T08:37:42;15.70;;;10.90;;
67986;SDS011;54767;53.800;15.956;2023-04-15T08:40:11;14.40;;;10.40;;
67986;SDS011;54767;53.800;15.956;2023-04-15T08:42:43;14.20;;;9.70;;
67986;SDS011;54767;53.800;15.956;2023-04-15T08:45:14;15.30;;;9.40;;
67986;SDS011;54767;53.800;15.956;2023-04-15T08:47:44;14.20;;;10.60;;
67986;SDS011;54767;53.800;15.956;2023-04-15T08:50:15;15.30;;;10.80;;
67986;SDS011;54767;53.800;15.956;2023-04-15T08:52:44;13.70;;;9.40;;
67986;SDS011;54767;53.800;15.956;2023-04-15T08:55:12;15.30;;;10.50;;
67986;SDS011;54767;53.800;15.956;2023-04-15T08:57:42;15.00;;;10.60;;
67986;SDS011;54767;53.800;15.956;2023-04-15T09:00:12;21.90;;;14.20;;
67986;SDS011;54767;53.800;15.956;2023-04-15T09:02:40;20.50;;;14.20;;
67986;SDS011;54767;53.800;15.956;2023-04-15T09:05:10;17.40;;;11.80;;
67986;SDS011;54767;53.800;15.956;2023-04-15T09:07:39;16.70;;;11.50;;
67986;SDS011;54767;53.800;15.956;2023-04-15T09:10:08;16.90;;;11.50;;
67986;SDS011;54767;53.800;15.956;2023-04-15T09:12:37;15.10;;;10.90;;
67986;SDS011;54767;53.800;15.956;2023-04-15T09:15:05;14.90;;;10.40;;
67986;SDS011;54767;53.800;15.956;2023-04-15T09:17:36;14.00;;;10.20;;
67986;SDS011;54767;53.800;15.956;2023-04-15T09:20:11;13.40;;;10.30;;
67986;SDS011;54767;53.800;15.956;2023-04-15T09:22:42;13.50;;;9.80;;
67986;SDS011;54767;53.800;15.956;2023-04-15T09:27:48;14.30;;;9.40;;
67986;SDS011;54767;53.800;15.956;2023-04-15T09:30:21;13.50;;;8.60;;
67986;SDS011;54767;53.800;15.956;2023-04-15T09:32:54;14.90;;;9.70;;
67986;SDS011;54767;53.800;15.956;2023-04-15T09:35:29;13.50;;;9.40;;
67986;SDS011;54767;53.800;15.956;2023-04-15T09:38:08;14.20;;;9.40;;
67986;SDS011;54767;53.800;15.956;2023-04-15T09:40:38;12.00;;;8.70;;
67986;SDS011;54767;53.800;15.956;2023-04-15T09:43:08;33.50;;;19.60;;
67986;SDS011;54767;53.800;15.956;2023-04-15T09:45:45;18.80;;;13.70;;
67986;SDS011;54767;53.800;15.956;2023-04-15T09:48:22;23.80;;;15.30;;
67986;SDS011;54767;53.800;15.956;2023-04-15T09:50:56;13.00;;;8.50;;
67986;SDS011;54767;53.800;15.956;2023-04-15T09:53:29;18.20;;;14.30;;
67986;SDS011;54767;53.800;15.956;2023-04-15T09:56:01;14.50;;;11.80;;
67986;SDS011;54767;53.800;15.956;2023-04-15T09:58:31;12.60;;;9.20;;
67986;SDS011;54767;53.800;15.956;2023-04-15T10:01:02;14.00;;;9.70;;
67986;SDS011;54767;53.800;15.956;2023-04-15T10:03:33;21.80;;;13.90;;
67986;SDS011;54767;53.800;15.956;2023-04-15T10:06:04;14.20;;;10.30;;
67986;SDS011;54767;53.800;15.956;2023-04-15T10:08:33;16.80;;;11.50;;
67986;SDS011;54767;53.800;15.956;2023-04-15T10:11:02;12.80;;;9.30;;
67986;SDS011;54767;53.800;15.956;2023-04-15T10:13:32;13.00;;;9.10;;
67986;SDS011;54767;53.800;15.956;2023-04-15T10:16:06;12.50;;;9.30;;
67986;SDS011;54767;53.800;15.956;2023-04-15T10:18:43;16.10;;;9.70;;
67986;SDS011;54767;53.800;15.956;2023-04-15T10:21:13;14.40;;;8.80;;
67986;SDS011;54767;53.800;15.956;2023-04-15T10:23:45;11.70;;;7.80;;
67986;SDS011;54767;53.800;15.956;2023-04-15T10:26:14;13.30;;;8.80;;
67986;SDS011;54767;53.800;15.956;2023-04-15T10:28:47;18.10;;;12.60;;
67986;SDS011;54767;53.800;15.956;2023-04-15T10:31:15;15.20;;;9.70;;
67986;SDS011;54767;53.800;15.956;2023-04-15T10:33:45;13.50;;;9.20;;
67986;SDS011;54767;53.800;15.956;2023-04-15T10:36:16;13.60;;;9.20;;
67986;SDS011;54767;53.800;15.956;2023-04-15T10:38:46;22.70;;;15.60;;
67986;SDS011;54767;53.800;15.956;2023-04-15T10:49:10;13.50;;;9.80;;
67986;SDS011;54767;53.800;15.956;2023-04-15T10:51:40;13.50;;;8.90;;
67986;SDS011;54767;53.800;15.956;2023-04-15T10:54:14;18.20;;;12.40;;
67986;SDS011;54767;53.800;15.956;2023-04-15T10:56:44;16.20;;;10.70;;
67986;SDS011;54767;53.800;15.956;2023-04-15T10:59:13;15.50;;;9.80;;
67986;SDS011;54767;53.800;15.956;2023-04-15T11:01:50;16.50;;;10.50;;
67986;SDS011;54767;53.800;15.956;2023-04-15T11:10:02;11.90;;;7.90;;
67986;SDS011;54767;53.800;15.956;2023-04-15T11:12:34;9.80;;;6.20;;
67986;SDS011;54767;53.800;15.956;2023-04-15T11:18:09;10.40;;;8.00;;
67986;SDS011;54767;53.800;15.956;2023-04-15T11:20:52;8.60;;;6.50;;
67986;SDS011;54767;53.800;15.956;2023-04-15T11:23:34;14.80;;;7.70;;
67986;SDS011;54767;53.800;15.956;2023-04-15T11:26:07;9.50;;;6.70;;
67986;SDS011;54767;53.800;15.956;2023-04-15T11:28:39;16.30;;;10.60;;
67986;SDS011;54767;53.800;15.956;2023-04-15T11:31:12;9.90;;;6.90;;
67986;SDS011;54767;53.800;15.956;2023-04-15T11:36:14;8.10;;;6.00;;
67986;SDS011;54767;53.800;15.956;2023-04-15T11:38:43;6.40;;;5.60;;
67986;SDS011;54767;53.800;15.956;2023-04-15T11:41:14;9.60;;;6.40;;
67986;SDS011;54767;53.800;15.956;2023-04-15T11:43:48;10.20;;;6.60;;
67986;SDS011;54767;53.800;15.956;2023-04-15T11:46:17;7.80;;;5.80;;
67986;SDS011;54767;53.800;15.956;2023-04-15T11:48:46;6.80;;;5.60;;
67986;SDS011;54767;53.800;15.956;2023-04-15T11:51:14;9.70;;;6.30;;
67986;SDS011;54767;53.800;15.956;2023-04-15T11:58:52;9.50;;;7.30;;
67986;SDS011;54767;53.800;15.956;2023-04-15T12:01:33;13.30;;;8.10;;
67986;SDS011;54767;53.800;15.956;2023-04-15T12:04:10;6.70;;;5.70;;
67986;SDS011;54767;53.800;15.956;2023-04-15T12:06:47;9.60;;;6.50;;
67986;SDS011;54767;53.800;15.956;2023-04-15T12:09:15;8.50;;;6.40;;
67986;SDS011;54767;53.800;15.956;2023-04-15T12:11:44;6.60;;;5.80;;
67986;SDS011;54767;53.800;15.956;2023-04-15T12:16:44;13.60;;;7.70;;
67986;SDS011;54767;53.800;15.956;2023-04-15T12:19:36;11.00;;;7.30;;
67986;SDS011;54767;53.800;15.956;2023-04-15T12:22:16;11.10;;;7.50;;
67986;SDS011;54767;53.800;15.956;2023-04-15T12:24:44;10.30;;;7.00;;
67986;SDS011;54767;53.800;15.956;2023-04-15T12:27:15;5.40;;;4.70;;
67986;SDS011;54767;53.800;15.956;2023-04-15T12:29:44;11.20;;;6.10;;
67986;SDS011;54767;53.800;15.956;2023-04-15T12:32:13;7.50;;;5.20;;
67986;SDS011;54767;53.800;15.956;2023-04-15T12:34:45;6.10;;;5.10;;
67986;SDS011;54767;53.800;15.956;2023-04-15T12:37:17;7.10;;;5.30;;
67986;SDS011;54767;53.800;15.956;2023-04-15T12:39:47;8.40;;;5.80;;
67986;SDS011;54767;53.800;15.956;2023-04-15T12:42:16;7.60;;;5.50;;
67986;SDS011;54767;53.800;15.956;2023-04-15T12:44:45;8.00;;;5.00;;
67986;SDS011;54767;53.800;15.956;2023-04-15T12:47:14;8.60;;;6.10;;
67986;SDS011;54767;53.800;15.956;2023-04-15T12:49:52;11.90;;;7.40;;
67986;SDS011;54767;53.800;15.956;2023-04-15T12:52:20;11.10;;;6.40;;
67986;SDS011;54767;53.800;15.956;2023-04-15T12:54:49;8.10;;;5.70;;
67986;SDS011;54767;53.800;15.956;2023-04-15T12:57:17;7.90;;;5.60;;
67986;SDS011;54767;53.800;15.956;2023-04-15T12:59:45;9.00;;;6.00;;
67986;SDS011;54767;53.800;15.956;2023-04-15T13:02:14;8.60;;;5.80;;
67986;SDS011;54767;53.800;15.956;2023-04-15T13:04:43;8.70;;;5.80;;
67986;SDS011;54767;53.800;15.956;2023-04-15T13:07:14;7.50;;;5.80;;
67986;SDS011;54767;53.800;15.956;2023-04-15T13:09:42;11.30;;;7.40;;
67986;SDS011;54767;53.800;15.956;2023-04-15T13:12:11;9.00;;;6.50;;
67986;SDS011;54767;53.800;15.956;2023-04-15T13:14:41;10.30;;;6.90;;
67986;SDS011;54767;53.800;15.956;2023-04-15T13:17:10;9.40;;;6.70;;
67986;SDS011;54767;53.800;15.956;2023-04-15T13:19:41;9.80;;;6.80;;
67986;SDS011;54767;53.800;15.956;2023-04-15T13:22:10;8.70;;;6.50;;
67986;SDS011;54767;53.800;15.956;2023-04-15T13:24:39;9.60;;;6.90;;
67986;SDS011;54767;53.800;15.956;2023-04-15T13:27:08;9.70;;;7.50;;
67986;SDS011;54767;53.800;15.956;2023-04-15T13:29:40;10.30;;;8.00;;
67986;SDS011;54767;53.800;15.956;2023-04-15T13:32:08;11.50;;;8.10;;
67986;SDS011;54767;53.800;15.956;2023-04-15T13:34:36;9.40;;;6.90;;
67986;SDS011;54767;53.800;15.956;2023-04-15T13:37:06;11.00;;;7.80;;
67986;SDS011;54767;53.800;15.956;2023-04-15T13:39:37;11.80;;;8.90;;
67986;SDS011;54767;53.800;15.956;2023-04-15T13:42:05;11.60;;;8.70;;
67986;SDS011;54767;53.800;15.956;2023-04-15T13:44:33;11.70;;;8.00;;
67986;SDS011;54767;53.800;15.956;2023-04-15T13:47:02;12.60;;;9.00;;
67986;SDS011;54767;53.800;15.956;2023-04-15T13:49:30;10.40;;;7.20;;
67986;SDS011;54767;53.800;15.956;2023-04-15T13:51:59;11.40;;;8.40;;
67986;SDS011;54767;53.800;15.956;2023-04-15T13:54:27;10.00;;;7.50;;
67986;SDS011;54767;53.800;15.956;2023-04-15T13:57:05;15.40;;;10.60;;
67986;SDS011;54767;53.800;15.956;2023-04-15T13:59:33;15.10;;;10.00;;
67986;SDS011;54767;53.800;15.956;2023-04-15T14:02:02;15.90;;;9.80;;
67986;SDS011;54767;53.800;15.956;2023-04-15T14:04:31;13.40;;;10.20;;
67986;SDS011;54767;53.800;15.956;2023-04-15T14:07:00;13.90;;;10.60;;
67986;SDS011;54767;53.800;15.956;2023-04-15T14:09:31;14.60;;;10.60;;
67986;SDS011;54767;53.800;15.956;2023-04-15T14:12:00;18.20;;;13.50;;
67986;SDS011;54767;53.800;15.956;2023-04-15T14:14:29;25.80;;;20.40;;
67986;SDS011;54767;53.800;15.956;2023-04-15T14:16:58;20.10;;;14.80;;
67986;SDS011;54767;53.800;15.956;2023-04-15T14:19:28;16.80;;;11.90;;
67986;SDS011;54767;53.800;15.956;2023-04-15T14:21:58;14.90;;;10.50;;
67986;SDS011;54767;53.800;15.956;2023-04-15T14:24:26;10.70;;;8.10;;
67986;SDS011;54767;53.800;15.956;2023-04-15T14:26:54;14.90;;;10.60;;
67986;SDS011;54767;53.800;15.956;2023-04-15T14:29:24;13.70;;;9.00;;
67986;SDS011;54767;53.800;15.956;2023-04-15T14:31:53;19.90;;;14.40;;
67986;SDS011;54767;53.800;15.956;2023-04-15T14:34:39;14.00;;;9.90;;
67986;SDS011;54767;53.800;15.956;2023-04-15T14:37:07;22.90;;;16.50;;
67986;SDS011;54767;53.800;15.956;2023-04-15T14:39:36;17.60;;;11.50;;
67986;SDS011;54767;53.800;15.956;2023-04-15T14:42:04;24.70;;;14.90;;
67986;SDS011;54767;53.800;15.956;2023-04-15T14:44:33;18.40;;;13.60;;
67986;SDS011;54767;53.800;15.956;2023-04-15T14:47:01;26.80;;;19.10;;
67986;SDS011;54767;53.800;15.956;2023-04-15T14:49:29;32.80;;;23.80;;
67986;SDS011;54767;53.800;15.956;2023-04-15T14:51:59;38.30;;;26.00;;
67986;SDS011;54767;53.800;15.956;2023-04-15T14:54:27;28.00;;;20.40;;
67986;SDS011;54767;53.800;15.956;2023-04-15T14:56:55;18.00;;;13.20;;
67986;SDS011;54767;53.800;15.956;2023-04-15T14:59:24;19.20;;;12.80;;
67986;SDS011;54767;53.800;15.956;2023-04-15T15:01:52;20.90;;;13.90;;
67986;SDS011;54767;53.800;15.956;2023-04-15T15:04:20;21.00;;;14.00;;
67986;SDS011;54767;53.800;15.956;2023-04-15T15:06:49;20.60;;;13.90;;